sensor_id;sensor_type;location;lat;lon;timestamp;P1;durP1;ratioP1;P2;durP2;ratioP2
10452;SDS011;5274;51.992;8.518;2023-11-19T00:02:18;9.00;;;8.25;;
10452;SDS011;5274;51.992;8.518;2023-11-19T00:04:44;8.45;;;7.95;;
10452;SDS011;5274;51.992;8.518;2023-11-19T00:07:10;9.07;;;8.48;;
10452;SDS011;5274;51.992;8.518;2023-11-19T00:09:38;9.07;;;8.32;;
10452;SDS011;5274;51.992;8.518;2023-11-19T00:12:04;19.60;;;18.58;;
10452;SDS011;5274;51.992;8.518;2023-11-19T00:14:30;8.68;;;8.18;;
10452;SDS011;5274;51.992;8.518;2023-11-19T00:16:56;10.80;;;9.82;;
10452;SDS011;5274;51.992;8.518;2023-11-19T00:19:22;10.23;;;9.63;;
10452;SDS011;5274;51.992;8.518;2023-11-19T00:21:48;10.77;;;9.98;;
10452;SDS011;5274;51.992;8.518;2023-11-19T00:24:14;9.60;;;9.10;;
10452;SDS011;5274;51.992;8.518;2023-11-19T00:26:43;11.95;;;11.15;;
10452;SDS011;5274;51.992;8.518;2023-11-19T00:29:09;11.77;;;10.75;;
10452;SDS011;5274;51.992;8.518;2023-11-19T00:31:35;16.00;;;10.55;;
10452;SDS011;5274;51.992;8.518;2023-11-19T00:34:01;11.20;;;10.38;;
10452;SDS011;5274;51.992;8.518;2023-11-19T00:36:27;10.73;;;9.93;;
10452;SDS011;5274;51.992;8.518;2023-11-19T00:38:54;11.25;;;10.55;;
10452;SDS011;5274;51.992;8.518;2023-11-19T00:41:20;10.50;;;9.88;;
10452;SDS011;5274;51.992;8.518;2023-11-19T00:43:47;10.82;;;10.13;;
10452;SDS011;5274;51.992;8.518;2023-11-19T00:46:14;10.68;;;10.07;;
10452;SDS011;5274;51.992;8.518;2023-11-19T00:48:40;11.50;;;10.68;;
10452;SDS011;5274;51.992;8.518;2023-11-19T00:51:06;10.60;;;10.00;;
10452;SDS011;5274;51.992;8.518;2023-11-19T00:53:33;12.25;;;11.55;;
10452;SDS011;5274;51.992;8.518;2023-11-19T00:55:59;11.90;;;11.15;;
10452;SDS011;5274;51.992;8.518;2023-11-19T00:58:25;11.48;;;10.77;;
10452;SDS011;5274;51.992;8.518;2023-11-19T01:00:52;11.38;;;10.68;;
10452;SDS011;5274;51.992;8.518;2023-11-19T01:03:17;11.30;;;10.50;;
10452;SDS011;5274;51.992;8.518;2023-11-19T01:05:43;10.60;;;9.90;;
10452;SDS011;5274;51.992;8.518;2023-11-19T01:08:11;10.40;;;9.85;;
10452;SDS011;5274;51.992;8.518;2023-11-19T01:10:37;9.80;;;9.30;;
10452;SDS011;5274;51.992;8.518;2023-11-19T01:13:03;11.00;;;10.20;;
10452;SDS011;5274;51.992;8.518;2023-11-19T01:15:31;10.40;;;9.80;;
10452;SDS011;5274;51.992;8.518;2023-11-19T01:17:57;11.30;;;10.40;;
10452;SDS011;5274;51.992;8.518;2023-11-19T01:20:22;11.88;;;11.18;;
10452;SDS011;5274;51.992;8.518;2023-11-19T01:22:49;12.82;;;11.82;;
10452;SDS011;5274;51.992;8.518;2023-11-19T01:25:15;12.55;;;11.80;;
10452;SDS011;5274;51.992;8.518;2023-11-19T01:27:41;12.90;;;11.88;;
10452;SDS011;5274;51.992;8.518;2023-11-19T01:30:07;14.00;;;12.80;;
10452;SDS011;5274;51.992;8.518;2023-11-19T01:32:37;11.38;;;10.57;;
10452;SDS011;5274;51.992;8.518;2023-11-19T01:35:03;12.38;;;11.27;;
10452;SDS011;5274;51.992;8.518;2023-11-19T01:37:29;13.07;;;11.73;;
10452;SDS011;5274;51.992;8.518;2023-11-19T01:39:57;13.52;;;12.45;;
10452;SDS011;5274;51.992;8.518;2023-11-19T01:42:23;13.70;;;12.60;;
10452;SDS011;5274;51.992;8.518;2023-11-19T01:44:58;13.20;;;12.30;;
10452;SDS011;5274;51.992;8.518;2023-11-19T01:47:27;14.85;;;13.32;;
10452;SDS011;5274;51.992;8.518;2023-11-19T01:49:53;13.27;;;12.38;;
10452;SDS011;5274;51.992;8.518;2023-11-19T01:52:20;13.07;;;12.07;;
10452;SDS011;5274;51.992;8.518;2023-11-19T01:54:45;14.43;;;13.32;;
10452;SDS011;5274;51.992;8.518;2023-11-19T01:57:12;14.85;;;13.85;;
10452;SDS011;5274;51.992;8.518;2023-11-19T01:59:38;13.10;;;12.20;;
10452;SDS011;5274;51.992;8.518;2023-11-19T02:02:05;13.35;;;12.55;;
10452;SDS011;5274;51.992;8.518;2023-11-19T02:04:31;13.95;;;12.93;;
10452;SDS011;5274;51.992;8.518;2023-11-19T02:06:57;13.50;;;12.63;;
10452;SDS011;5274;51.992;8.518;2023-11-19T02:09:24;12.90;;;12.02;;
10452;SDS011;5274;51.992;8.518;2023-11-19T02:11:50;12.98;;;12.05;;
10452;SDS011;5274;51.992;8.518;2023-11-19T02:14:17;13.07;;;12.02;;
10452;SDS011;5274;51.992;8.518;2023-11-19T02:16:43;15.23;;;13.85;;
10452;SDS011;5274;51.992;8.518;2023-11-19T02:19:09;15.07;;;13.65;;
10452;SDS011;5274;51.992;8.518;2023-11-19T02:21:36;14.05;;;13.20;;
10452;SDS011;5274;51.992;8.518;2023-11-19T02:24:03;14.02;;;13.23;;
10452;SDS011;5274;51.992;8.518;2023-11-19T02:29:04;14.50;;;13.40;;
10452;SDS011;5274;51.992;8.518;2023-11-19T02:31:31;21.75;;;14.20;;
10452;SDS011;5274;51.992;8.518;2023-11-19T02:33:57;16.48;;;14.90;;
10452;SDS011;5274;51.992;8.518;2023-11-19T02:36:25;14.57;;;13.63;;
10452;SDS011;5274;51.992;8.518;2023-11-19T02:38:51;15.13;;;14.02;;
10452;SDS011;5274;51.992;8.518;2023-11-19T02:41:17;15.75;;;14.45;;
10452;SDS011;5274;51.992;8.518;2023-11-19T02:43:43;16.10;;;14.90;;
10452;SDS011;5274;51.992;8.518;2023-11-19T02:46:09;16.77;;;15.23;;
10452;SDS011;5274;51.992;8.518;2023-11-19T02:48:36;18.20;;;16.88;;
10452;SDS011;5274;51.992;8.518;2023-11-19T02:51:04;18.00;;;16.60;;
10452;SDS011;5274;51.992;8.518;2023-11-19T02:53:34;18.98;;;16.98;;
10452;SDS011;5274;51.992;8.518;2023-11-19T02:56:00;18.05;;;16.52;;
10452;SDS011;5274;51.992;8.518;2023-11-19T02:58:31;18.38;;;16.50;;
10452;SDS011;5274;51.992;8.518;2023-11-19T03:00:57;19.48;;;17.67;;
10452;SDS011;5274;51.992;8.518;2023-11-19T03:03:24;21.80;;;19.60;;
10452;SDS011;5274;51.992;8.518;2023-11-19T03:05:53;19.80;;;17.88;;
10452;SDS011;5274;51.992;8.518;2023-11-19T03:08:20;21.52;;;19.25;;
10452;SDS011;5274;51.992;8.518;2023-11-19T03:10:47;23.90;;;20.00;;
10452;SDS011;5274;51.992;8.518;2023-11-19T03:13:13;22.58;;;18.63;;
10452;SDS011;5274;51.992;8.518;2023-11-19T03:15:39;22.92;;;20.75;;
10452;SDS011;5274;51.992;8.518;2023-11-19T03:18:05;24.40;;;21.20;;
10452;SDS011;5274;51.992;8.518;2023-11-19T03:20:31;24.52;;;19.52;;
10452;SDS011;5274;51.992;8.518;2023-11-19T03:22:57;22.73;;;20.35;;
10452;SDS011;5274;51.992;8.518;2023-11-19T03:25:26;22.23;;;19.92;;
10452;SDS011;5274;51.992;8.518;2023-11-19T03:27:58;23.50;;;20.83;;
10452;SDS011;5274;51.992;8.518;2023-11-19T03:30:24;23.17;;;20.55;;
10452;SDS011;5274;51.992;8.518;2023-11-19T03:32:50;27.60;;;21.40;;
10452;SDS011;5274;51.992;8.518;2023-11-19T03:35:16;30.05;;;24.30;;
10452;SDS011;5274;51.992;8.518;2023-11-19T03:37:42;27.27;;;23.83;;
10452;SDS011;5274;51.992;8.518;2023-11-19T03:40:08;33.30;;;23.85;;
10452;SDS011;5274;51.992;8.518;2023-11-19T03:42:35;30.77;;;22.65;;
10452;SDS011;5274;51.992;8.518;2023-11-19T03:45:01;28.52;;;22.20;;
10452;SDS011;5274;51.992;8.518;2023-11-19T03:47:29;27.42;;;22.27;;
10452;SDS011;5274;51.992;8.518;2023-11-19T03:49:55;31.00;;;24.13;;
10452;SDS011;5274;51.992;8.518;2023-11-19T03:52:21;33.85;;;22.42;;
10452;SDS011;5274;51.992;8.518;2023-11-19T03:54:47;32.65;;;23.23;;
10452;SDS011;5274;51.992;8.518;2023-11-19T03:57:13;32.65;;;23.00;;
10452;SDS011;5274;51.992;8.518;2023-11-19T03:59:40;28.73;;;22.48;;
10452;SDS011;5274;51.992;8.518;2023-11-19T04:02:06;29.45;;;23.35;;
10452;SDS011;5274;51.992;8.518;2023-11-19T04:04:32;34.83;;;25.98;;
10452;SDS011;5274;51.992;8.518;2023-11-19T04:06:59;28.52;;;25.58;;
10452;SDS011;5274;51.992;8.518;2023-11-19T04:09:25;29.92;;;25.92;;
10452;SDS011;5274;51.992;8.518;2023-11-19T04:11:51;27.80;;;24.90;;
10452;SDS011;5274;51.992;8.518;2023-11-19T04:14:17;30.63;;;25.15;;
10452;SDS011;5274;51.992;8.518;2023-11-19T04:16:44;27.38;;;22.90;;
10452;SDS011;5274;51.992;8.518;2023-11-19T04:19:10;29.80;;;23.52;;
10452;SDS011;5274;51.992;8.518;2023-11-19T04:21:36;28.33;;;21.88;;
10452;SDS011;5274;51.992;8.518;2023-11-19T04:24:02;24.85;;;22.20;;
10452;SDS011;5274;51.992;8.518;2023-11-19T04:26:28;24.73;;;22.13;;
10452;SDS011;5274;51.992;8.518;2023-11-19T04:28:56;25.73;;;20.58;;
10452;SDS011;5274;51.992;8.518;2023-11-19T04:31:22;25.50;;;21.45;;
10452;SDS011;5274;51.992;8.518;2023-11-19T04:33:48;24.58;;;21.90;;
10452;SDS011;5274;51.992;8.518;2023-11-19T04:36:18;23.23;;;20.77;;
10452;SDS011;5274;51.992;8.518;2023-11-19T04:38:44;23.33;;;20.23;;
10452;SDS011;5274;51.992;8.518;2023-11-19T04:41:11;26.02;;;20.33;;
10452;SDS011;5274;51.992;8.518;2023-11-19T04:43:37;25.67;;;18.48;;
10452;SDS011;5274;51.992;8.518;2023-11-19T04:46:05;19.27;;;17.27;;
10452;SDS011;5274;51.992;8.518;2023-11-19T04:48:32;27.10;;;17.55;;
10452;SDS011;5274;51.992;8.518;2023-11-19T04:50:57;20.92;;;17.13;;
10452;SDS011;5274;51.992;8.518;2023-11-19T04:53:23;19.85;;;13.65;;
10452;SDS011;5274;51.992;8.518;2023-11-19T04:55:49;20.67;;;12.75;;
10452;SDS011;5274;51.992;8.518;2023-11-19T04:58:15;15.45;;;12.75;;
10452;SDS011;5274;51.992;8.518;2023-11-19T05:00:41;15.18;;;12.80;;
10452;SDS011;5274;51.992;8.518;2023-11-19T05:03:07;23.63;;;12.80;;
10452;SDS011;5274;51.992;8.518;2023-11-19T05:05:33;17.38;;;11.90;;
10452;SDS011;5274;51.992;8.518;2023-11-19T05:07:59;20.60;;;11.98;;
10452;SDS011;5274;51.992;8.518;2023-11-19T05:10:26;20.33;;;12.32;;
10452;SDS011;5274;51.992;8.518;2023-11-19T05:12:52;70.97;;;65.30;;
10452;SDS011;5274;51.992;8.518;2023-11-19T05:15:18;63.97;;;59.30;;
10452;SDS011;5274;51.992;8.518;2023-11-19T05:17:44;67.20;;;61.70;;
10452;SDS011;5274;51.992;8.518;2023-11-19T05:20:10;62.97;;;58.47;;
10452;SDS011;5274;51.992;8.518;2023-11-19T05:22:41;66.95;;;62.42;;
10452;SDS011;5274;51.992;8.518;2023-11-19T05:25:07;65.55;;;60.80;;
10452;SDS011;5274;51.992;8.518;2023-11-19T05:27:36;66.50;;;61.38;;
10452;SDS011;5274;51.992;8.518;2023-11-19T05:30:04;65.32;;;60.58;;
10452;SDS011;5274;51.992;8.518;2023-11-19T05:32:32;65.85;;;60.33;;
10452;SDS011;5274;51.992;8.518;2023-11-19T05:34:58;55.20;;;51.40;;
10452;SDS011;5274;51.992;8.518;2023-11-19T05:37:24;55.38;;;51.33;;
10452;SDS011;5274;51.992;8.518;2023-11-19T05:39:50;58.20;;;54.35;;
10452;SDS011;5274;51.992;8.518;2023-11-19T05:42:17;60.20;;;56.05;;
10452;SDS011;5274;51.992;8.518;2023-11-19T05:44:43;60.17;;;56.03;;
10452;SDS011;5274;51.992;8.518;2023-11-19T05:47:09;58.45;;;54.38;;
10452;SDS011;5274;51.992;8.518;2023-11-19T05:49:35;65.82;;;61.15;;
10452;SDS011;5274;51.992;8.518;2023-11-19T05:52:01;62.53;;;58.58;;
10452;SDS011;5274;51.992;8.518;2023-11-19T05:54:28;63.28;;;58.53;;
10452;SDS011;5274;51.992;8.518;2023-11-19T05:56:54;63.55;;;58.95;;
10452;SDS011;5274;51.992;8.518;2023-11-19T05:59:20;63.78;;;58.35;;
10452;SDS011;5274;51.992;8.518;2023-11-19T06:01:47;55.25;;;50.85;;
10452;SDS011;5274;51.992;8.518;2023-11-19T06:04:13;54.75;;;51.15;;
10452;SDS011;5274;51.992;8.518;2023-11-19T06:06:40;56.45;;;52.28;;
10452;SDS011;5274;51.992;8.518;2023-11-19T06:09:06;57.35;;;52.92;;
10452;SDS011;5274;51.992;8.518;2023-11-19T06:11:33;55.25;;;50.65;;
10452;SDS011;5274;51.992;8.518;2023-11-19T06:14:00;56.28;;;51.58;;
10452;SDS011;5274;51.992;8.518;2023-11-19T06:16:28;65.88;;;60.25;;
10452;SDS011;5274;51.992;8.518;2023-11-19T06:18:54;64.45;;;59.35;;
10452;SDS011;5274;51.992;8.518;2023-11-19T06:21:20;64.32;;;58.75;;
10452;SDS011;5274;51.992;8.518;2023-11-19T06:23:46;61.70;;;57.20;;
10452;SDS011;5274;51.992;8.518;2023-11-19T06:26:12;61.30;;;56.83;;
10452;SDS011;5274;51.992;8.518;2023-11-19T06:28:39;55.15;;;50.58;;
10452;SDS011;5274;51.992;8.518;2023-11-19T06:31:05;52.90;;;48.70;;
10452;SDS011;5274;51.992;8.518;2023-11-19T06:33:30;52.92;;;48.97;;
10452;SDS011;5274;51.992;8.518;2023-11-19T06:35:56;51.60;;;47.63;;
10452;SDS011;5274;51.992;8.518;2023-11-19T06:38:22;53.92;;;49.72;;
10452;SDS011;5274;51.992;8.518;2023-11-19T06:40:48;55.45;;;51.10;;
10452;SDS011;5274;51.992;8.518;2023-11-19T06:43:14;56.55;;;52.42;;
10452;SDS011;5274;51.992;8.518;2023-11-19T06:45:40;63.67;;;58.90;;
10452;SDS011;5274;51.992;8.518;2023-11-19T06:48:06;63.88;;;59.08;;
10452;SDS011;5274;51.992;8.518;2023-11-19T06:50:32;61.65;;;56.78;;
10452;SDS011;5274;51.992;8.518;2023-11-19T06:52:58;60.85;;;56.42;;
10452;SDS011;5274;51.992;8.518;2023-11-19T06:55:24;53.42;;;49.22;;
10452;SDS011;5274;51.992;8.518;2023-11-19T06:57:50;51.92;;;47.90;;
10452;SDS011;5274;51.992;8.518;2023-11-19T07:00:16;51.20;;;47.50;;
10452;SDS011;5274;51.992;8.518;2023-11-19T07:02:43;52.97;;;48.78;;
10452;SDS011;5274;51.992;8.518;2023-11-19T07:05:09;53.15;;;48.65;;
10452;SDS011;5274;51.992;8.518;2023-11-19T07:07:37;50.75;;;47.10;;
10452;SDS011;5274;51.992;8.518;2023-11-19T07:10:03;46.30;;;42.35;;
10452;SDS011;5274;51.992;8.518;2023-11-19T07:12:29;57.08;;;52.08;;
10452;SDS011;5274;51.992;8.518;2023-11-19T07:14:56;55.88;;;51.92;;
10452;SDS011;5274;51.992;8.518;2023-11-19T07:17:22;60.38;;;55.42;;
10452;SDS011;5274;51.992;8.518;2023-11-19T07:19:49;58.38;;;53.95;;
10452;SDS011;5274;51.992;8.518;2023-11-19T07:22:16;54.97;;;50.58;;
10452;SDS011;5274;51.992;8.518;2023-11-19T07:24:42;47.85;;;42.70;;
10452;SDS011;5274;51.992;8.518;2023-11-19T07:27:08;48.28;;;44.33;;
10452;SDS011;5274;51.992;8.518;2023-11-19T07:29:35;49.38;;;45.05;;
10452;SDS011;5274;51.992;8.518;2023-11-19T07:32:01;48.53;;;44.60;;
10452;SDS011;5274;51.992;8.518;2023-11-19T07:34:27;48.47;;;44.53;;
10452;SDS011;5274;51.992;8.518;2023-11-19T07:36:54;50.92;;;46.22;;
10452;SDS011;5274;51.992;8.518;2023-11-19T07:39:24;58.97;;;53.42;;
10452;SDS011;5274;51.992;8.518;2023-11-19T07:41:50;49.78;;;45.83;;
10452;SDS011;5274;51.992;8.518;2023-11-19T07:44:16;49.65;;;45.08;;
10452;SDS011;5274;51.992;8.518;2023-11-19T07:46:42;57.35;;;52.83;;
10452;SDS011;5274;51.992;8.518;2023-11-19T07:49:09;56.55;;;51.35;;
10452;SDS011;5274;51.992;8.518;2023-11-19T07:51:35;49.67;;;45.33;;
10452;SDS011;5274;51.992;8.518;2023-11-19T07:54:01;50.67;;;46.28;;
10452;SDS011;5274;51.992;8.518;2023-11-19T07:56:27;51.50;;;46.75;;
10452;SDS011;5274;51.992;8.518;2023-11-19T07:58:53;50.28;;;45.72;;
10452;SDS011;5274;51.992;8.518;2023-11-19T08:01:19;49.13;;;44.97;;
10452;SDS011;5274;51.992;8.518;2023-11-19T08:03:45;51.58;;;47.38;;
10452;SDS011;5274;51.992;8.518;2023-11-19T08:06:11;50.33;;;45.55;;
10452;SDS011;5274;51.992;8.518;2023-11-19T08:08:37;50.33;;;46.05;;
10452;SDS011;5274;51.992;8.518;2023-11-19T08:11:04;46.78;;;42.30;;
10452;SDS011;5274;51.992;8.518;2023-11-19T08:13:30;51.10;;;46.92;;
10452;SDS011;5274;51.992;8.518;2023-11-19T08:15:56;54.60;;;49.63;;
10452;SDS011;5274;51.992;8.518;2023-11-19T08:18:23;46.20;;;42.10;;
10452;SDS011;5274;51.992;8.518;2023-11-19T08:20:49;44.22;;;39.97;;
10452;SDS011;5274;51.992;8.518;2023-11-19T08:23:18;44.95;;;40.78;;
10452;SDS011;5274;51.992;8.518;2023-11-19T08:25:44;45.67;;;41.90;;
10452;SDS011;5274;51.992;8.518;2023-11-19T08:28:10;41.13;;;37.08;;
10452;SDS011;5274;51.992;8.518;2023-11-19T08:30:36;41.35;;;37.90;;
10452;SDS011;5274;51.992;8.518;2023-11-19T08:33:02;52.88;;;48.28;;
10452;SDS011;5274;51.992;8.518;2023-11-19T08:35:29;51.60;;;47.25;;
10452;SDS011;5274;51.992;8.518;2023-11-19T08:37:55;53.53;;;49.03;;
10452;SDS011;5274;51.992;8.518;2023-11-19T08:40:22;55.17;;;50.17;;
10452;SDS011;5274;51.992;8.518;2023-11-19T08:42:48;54.67;;;49.30;;
10452;SDS011;5274;51.992;8.518;2023-11-19T08:45:14;45.97;;;41.45;;
10452;SDS011;5274;51.992;8.518;2023-11-19T08:47:40;46.53;;;42.40;;
10452;SDS011;5274;51.992;8.518;2023-11-19T08:50:06;46.83;;;42.60;;
10452;SDS011;5274;51.992;8.518;2023-11-19T08:52:33;43.97;;;39.97;;
10452;SDS011;5274;51.992;8.518;2023-11-19T08:54:59;53.70;;;49.38;;
10452;SDS011;5274;51.992;8.518;2023-11-19T08:57:25;56.65;;;51.17;;
10452;SDS011;5274;51.992;8.518;2023-11-19T08:59:51;43.80;;;39.38;;
10452;SDS011;5274;51.992;8.518;2023-11-19T09:02:17;39.15;;;35.20;;
10452;SDS011;5274;51.992;8.518;2023-11-19T09:04:43;45.92;;;41.58;;
10452;SDS011;5274;51.992;8.518;2023-11-19T09:07:09;51.63;;;47.10;;
10452;SDS011;5274;51.992;8.518;2023-11-19T09:09:35;54.65;;;49.25;;
10452;SDS011;5274;51.992;8.518;2023-11-19T09:12:01;49.85;;;45.55;;
10452;SDS011;5274;51.992;8.518;2023-11-19T09:14:28;46.90;;;42.70;;
10452;SDS011;5274;51.992;8.518;2023-11-19T09:16:55;50.22;;;45.30;;
10452;SDS011;5274;51.992;8.518;2023-11-19T09:19:21;46.45;;;42.38;;
10452;SDS011;5274;51.992;8.518;2023-11-19T09:21:47;49.58;;;45.35;;
10452;SDS011;5274;51.992;8.518;2023-11-19T09:24:14;49.47;;;44.85;;
10452;SDS011;5274;51.992;8.518;2023-11-19T09:26:40;46.13;;;41.55;;
10452;SDS011;5274;51.992;8.518;2023-11-19T09:29:07;48.70;;;44.40;;
10452;SDS011;5274;51.992;8.518;2023-11-19T09:31:33;49.47;;;44.53;;
10452;SDS011;5274;51.992;8.518;2023-11-19T09:33:59;45.53;;;41.13;;
10452;SDS011;5274;51.992;8.518;2023-11-19T09:36:25;41.10;;;36.25;;
10452;SDS011;5274;51.992;8.518;2023-11-19T09:38:51;43.78;;;39.95;;
10452;SDS011;5274;51.992;8.518;2023-11-19T09:41:17;46.28;;;41.40;;
10452;SDS011;5274;51.992;8.518;2023-11-19T09:43:44;49.47;;;45.10;;
10452;SDS011;5274;51.992;8.518;2023-11-19T09:46:11;49.13;;;44.45;;
10452;SDS011;5274;51.992;8.518;2023-11-19T09:48:38;53.35;;;48.70;;
10452;SDS011;5274;51.992;8.518;2023-11-19T09:51:08;50.10;;;45.20;;
10452;SDS011;5274;51.992;8.518;2023-11-19T09:53:34;51.30;;;46.53;;
10452;SDS011;5274;51.992;8.518;2023-11-19T09:56:01;47.42;;;42.97;;
10452;SDS011;5274;51.992;8.518;2023-11-19T09:58:30;48.97;;;44.33;;
10452;SDS011;5274;51.992;8.518;2023-11-19T10:00:57;47.63;;;43.15;;
10452;SDS011;5274;51.992;8.518;2023-11-19T10:03:24;43.58;;;39.58;;
10452;SDS011;5274;51.992;8.518;2023-11-19T10:05:50;50.95;;;46.33;;
10452;SDS011;5274;51.992;8.518;2023-11-19T10:08:16;55.38;;;50.40;;
10452;SDS011;5274;51.992;8.518;2023-11-19T10:10:42;53.08;;;48.30;;
10452;SDS011;5274;51.992;8.518;2023-11-19T10:13:08;52.88;;;48.15;;
10452;SDS011;5274;51.992;8.518;2023-11-19T10:15:37;46.65;;;42.67;;
10452;SDS011;5274;51.992;8.518;2023-11-19T10:18:03;43.17;;;39.22;;
10452;SDS011;5274;51.992;8.518;2023-11-19T10:20:40;42.10;;;35.40;;
10452;SDS011;5274;51.992;8.518;2023-11-19T10:23:06;43.95;;;39.67;;
10452;SDS011;5274;51.992;8.518;2023-11-19T10:25:33;40.97;;;37.03;;
10452;SDS011;5274;51.992;8.518;2023-11-19T10:27:59;48.58;;;42.95;;
10452;SDS011;5274;51.992;8.518;2023-11-19T10:30:26;55.10;;;43.88;;
10452;SDS011;5274;51.992;8.518;2023-11-19T10:33:02;38.72;;;34.67;;
10452;SDS011;5274;51.992;8.518;2023-11-19T10:35:29;42.45;;;37.92;;
10452;SDS011;5274;51.992;8.518;2023-11-19T10:37:54;49.70;;;45.05;;
10452;SDS011;5274;51.992;8.518;2023-11-19T10:40:21;49.20;;;44.83;;
10452;SDS011;5274;51.992;8.518;2023-11-19T10:42:47;42.00;;;36.65;;
10452;SDS011;5274;51.992;8.518;2023-11-19T10:45:21;44.70;;;40.63;;
10452;SDS011;5274;51.992;8.518;2023-11-19T10:47:48;39.05;;;35.08;;
10452;SDS011;5274;51.992;8.518;2023-11-19T10:50:15;38.30;;;34.42;;
10452;SDS011;5274;51.992;8.518;2023-11-19T10:52:41;48.40;;;43.72;;
10452;SDS011;5274;51.992;8.518;2023-11-19T10:55:07;48.10;;;43.63;;
10452;SDS011;5274;51.992;8.518;2023-11-19T10:57:35;43.80;;;39.60;;
10452;SDS011;5274;51.992;8.518;2023-11-19T11:00:02;48.38;;;43.63;;
10452;SDS011;5274;51.992;8.518;2023-11-19T11:02:35;45.72;;;41.78;;
10452;SDS011;5274;51.992;8.518;2023-11-19T11:05:01;47.35;;;43.20;;
10452;SDS011;5274;51.992;8.518;2023-11-19T11:07:28;46.13;;;42.08;;
10452;SDS011;5274;51.992;8.518;2023-11-19T11:09:55;47.25;;;42.33;;
10452;SDS011;5274;51.992;8.518;2023-11-19T11:12:22;55.55;;;49.80;;
10452;SDS011;5274;51.992;8.518;2023-11-19T11:14:49;45.65;;;42.10;;
10452;SDS011;5274;51.992;8.518;2023-11-19T11:17:16;48.88;;;44.70;;
10452;SDS011;5274;51.992;8.518;2023-11-19T11:19:43;46.08;;;41.45;;
10452;SDS011;5274;51.992;8.518;2023-11-19T11:22:09;40.83;;;36.70;;
10452;SDS011;5274;51.992;8.518;2023-11-19T11:24:59;38.25;;;34.17;;
10452;SDS011;5274;51.992;8.518;2023-11-19T11:27:48;41.65;;;37.97;;
10452;SDS011;5274;51.992;8.518;2023-11-19T11:38:06;41.58;;;37.67;;
10452;SDS011;5274;51.992;8.518;2023-11-19T11:40:32;32.58;;;29.30;;
10452;SDS011;5274;51.992;8.518;2023-11-19T11:42:58;41.10;;;36.80;;
10452;SDS011;5274;51.992;8.518;2023-11-19T11:45:37;33.95;;;30.70;;
10452;SDS011;5274;51.992;8.518;2023-11-19T11:48:05;44.72;;;40.53;;
10452;SDS011;5274;51.992;8.518;2023-11-19T11:50:32;35.72;;;32.17;;
10452;SDS011;5274;51.992;8.518;2023-11-19T11:55:37;39.67;;;28.55;;
10452;SDS011;5274;51.992;8.518;2023-11-19T11:58:03;33.13;;;25.40;;
10452;SDS011;5274;51.992;8.518;2023-11-19T12:00:31;41.92;;;28.00;;
10452;SDS011;5274;51.992;8.518;2023-11-19T12:02:59;30.92;;;27.10;;
10452;SDS011;5274;51.992;8.518;2023-11-19T12:05:25;39.00;;;24.27;;
10452;SDS011;5274;51.992;8.518;2023-11-19T12:07:54;38.95;;;24.42;;
10452;SDS011;5274;51.992;8.518;2023-11-19T12:10:20;34.83;;;30.33;;
10452;SDS011;5274;51.992;8.518;2023-11-19T12:12:47;38.92;;;28.20;;
10452;SDS011;5274;51.992;8.518;2023-11-19T12:15:13;32.40;;;25.65;;
10452;SDS011;5274;51.992;8.518;2023-11-19T12:17:49;33.13;;;28.02;;
10452;SDS011;5274;51.992;8.518;2023-11-19T12:20:16;26.52;;;23.58;;
10452;SDS011;5274;51.992;8.518;2023-11-19T12:22:42;33.28;;;26.42;;
10452;SDS011;5274;51.992;8.518;2023-11-19T12:25:09;33.88;;;25.00;;
10452;SDS011;5274;51.992;8.518;2023-11-19T12:27:36;28.10;;;25.08;;
10452;SDS011;5274;51.992;8.518;2023-11-19T12:30:03;38.22;;;29.10;;
10452;SDS011;5274;51.992;8.518;2023-11-19T12:32:38;32.35;;;28.08;;
10452;SDS011;5274;51.992;8.518;2023-11-19T12:35:04;39.70;;;27.48;;
10452;SDS011;5274;51.992;8.518;2023-11-19T12:37:30;41.92;;;27.30;;
10452;SDS011;5274;51.992;8.518;2023-11-19T12:39:57;29.92;;;24.67;;
10452;SDS011;5274;51.992;8.518;2023-11-19T12:42:38;38.22;;;25.05;;
10452;SDS011;5274;51.992;8.518;2023-11-19T12:45:05;29.80;;;26.50;;
10452;SDS011;5274;51.992;8.518;2023-11-19T12:47:31;32.55;;;25.15;;
10452;SDS011;5274;51.992;8.518;2023-11-19T12:49:57;33.35;;;28.00;;
10452;SDS011;5274;51.992;8.518;2023-11-19T12:52:23;34.78;;;31.08;;
10452;SDS011;5274;51.992;8.518;2023-11-19T12:54:49;32.20;;;29.27;;
10452;SDS011;5274;51.992;8.518;2023-11-19T12:57:16;30.50;;;27.40;;
10452;SDS011;5274;51.992;8.518;2023-11-19T12:59:53;37.53;;;33.85;;
10452;SDS011;5274;51.992;8.518;2023-11-19T13:02:20;31.13;;;27.75;;
10452;SDS011;5274;51.992;8.518;2023-11-19T13:04:46;32.85;;;29.10;;
10452;SDS011;5274;51.992;8.518;2023-11-19T13:07:12;33.10;;;27.70;;
10452;SDS011;5274;51.992;8.518;2023-11-19T13:09:38;41.42;;;30.92;;
10452;SDS011;5274;51.992;8.518;2023-11-19T13:12:14;31.45;;;28.17;;
10452;SDS011;5274;51.992;8.518;2023-11-19T13:14:40;31.77;;;26.08;;
10452;SDS011;5274;51.992;8.518;2023-11-19T13:17:07;32.13;;;26.00;;
10452;SDS011;5274;51.992;8.518;2023-11-19T13:19:33;30.52;;;26.83;;
10452;SDS011;5274;51.992;8.518;2023-11-19T13:21:59;34.40;;;30.88;;
10452;SDS011;5274;51.992;8.518;2023-11-19T13:24:25;32.70;;;27.48;;
10452;SDS011;5274;51.992;8.518;2023-11-19T13:26:51;33.38;;;27.55;;
10452;SDS011;5274;51.992;8.518;2023-11-19T13:29:17;26.52;;;23.92;;
10452;SDS011;5274;51.992;8.518;2023-11-19T13:31:43;30.98;;;27.80;;
10452;SDS011;5274;51.992;8.518;2023-11-19T13:34:09;27.80;;;24.80;;
10452;SDS011;5274;51.992;8.518;2023-11-19T13:36:35;49.28;;;45.08;;
10452;SDS011;5274;51.992;8.518;2023-11-19T13:39:01;44.22;;;40.67;;
10452;SDS011;5274;51.992;8.518;2023-11-19T13:41:27;42.38;;;38.58;;
10452;SDS011;5274;51.992;8.518;2023-11-19T13:43:53;48.78;;;44.47;;
10452;SDS011;5274;51.992;8.518;2023-11-19T13:46:20;40.97;;;37.38;;
10452;SDS011;5274;51.992;8.518;2023-11-19T13:48:46;43.33;;;38.92;;
10452;SDS011;5274;51.992;8.518;2023-11-19T13:51:14;45.35;;;41.25;;
10452;SDS011;5274;51.992;8.518;2023-11-19T13:53:40;49.30;;;45.40;;
10452;SDS011;5274;51.992;8.518;2023-11-19T13:56:06;45.67;;;41.65;;
10452;SDS011;5274;51.992;8.518;2023-11-19T13:58:32;48.22;;;44.22;;
10452;SDS011;5274;51.992;8.518;2023-11-19T14:01:00;50.83;;;46.17;;
10452;SDS011;5274;51.992;8.518;2023-11-19T14:03:26;46.10;;;41.83;;
10452;SDS011;5274;51.992;8.518;2023-11-19T14:05:52;45.60;;;42.03;;
10452;SDS011;5274;51.992;8.518;2023-11-19T14:08:20;41.17;;;37.75;;
10452;SDS011;5274;51.992;8.518;2023-11-19T14:10:46;37.67;;;34.17;;
10452;SDS011;5274;51.992;8.518;2023-11-19T14:13:12;40.30;;;36.50;;
10452;SDS011;5274;51.992;8.518;2023-11-19T14:15:40;42.70;;;38.97;;
10452;SDS011;5274;51.992;8.518;2023-11-19T14:18:07;39.10;;;35.67;;
10452;SDS011;5274;51.992;8.518;2023-11-19T14:20:33;42.60;;;38.25;;
10452;SDS011;5274;51.992;8.518;2023-11-19T14:23:00;43.05;;;39.10;;
10452;SDS011;5274;51.992;8.518;2023-11-19T14:25:27;41.63;;;37.80;;
10452;SDS011;5274;51.992;8.518;2023-11-19T14:27:53;41.05;;;36.65;;
10452;SDS011;5274;51.992;8.518;2023-11-19T14:30:19;38.67;;;34.97;;
10452;SDS011;5274;51.992;8.518;2023-11-19T14:32:45;32.90;;;29.63;;
10452;SDS011;5274;51.992;8.518;2023-11-19T14:35:12;33.88;;;30.55;;
10452;SDS011;5274;51.992;8.518;2023-11-19T14:37:38;35.30;;;31.83;;
10452;SDS011;5274;51.992;8.518;2023-11-19T14:40:04;36.92;;;33.05;;
10452;SDS011;5274;51.992;8.518;2023-11-19T14:42:32;32.90;;;30.30;;
10452;SDS011;5274;51.992;8.518;2023-11-19T14:44:58;35.40;;;32.25;;
10452;SDS011;5274;51.992;8.518;2023-11-19T14:47:24;34.95;;;32.33;;